Time;durP1;ratioP1;P1;durP2;ratioP2;P2;SDS_P1;SDS_P2;PMS_P1;PMS_P2;Temp;Humidity;BMP_temperature;BMP_pressure;BME280_temperature;BME280_humidity;BME280_pressure;Samples;Min_cycle;Max_cycle;Signal;HPM_P1;HPM_P2
2023/07/02 00:01:51;;;;;;;16.73;4.45;;;23.30;99.90;;;;;;5091302;28;20028;-83
2023/07/02 00:04:19;;;;;;;13.85;4.30;;;23.10;99.90;;;;;;5090985;28;20028;-83
2023/07/02 00:06:49;;;;;;;13.70;4.15;;;23.20;99.90;;;;;;5090984;28;20036;-85
2023/07/02 00:09:16;;;;;;;15.18;4.57;;;23.20;99.90;;;;;;5092359;28;20029;-83
2023/07/02 00:11:44;;;;;;;13.68;3.78;;;23.10;99.90;;;;;;5091065;28;20035;-83
2023/07/02 00:14:10;;;;;;;13.35;4.20;;;23.10;99.90;;;;;;5091148;28;20043;-85
2023/07/02 00:16:45;;;;;;;15.27;4.47;;;23.00;99.90;;;;;;5092291;28;20044;-84
2023/07/02 00:19:14;;;;;;;11.43;4.20;;;23.00;99.90;;;;;;5092381;28;20111;-83
2023/07/02 00:21:41;;;;;;;14.50;3.95;;;23.00;99.90;;;;;;5091003;28;20035;-84
2023/07/02 00:24:09;;;;;;;15.57;3.88;;;23.00;99.90;;;;;;5092778;28;20033;-84
2023/07/02 00:26:37;;;;;;;13.55;4.00;;;22.90;99.90;;;;;;5092280;28;20024;-84
2023/07/02 00:29:04;;;;;;;21.63;4.05;;;22.90;99.90;;;;;;5091934;28;20030;-84
2023/07/02 00:31:30;;;;;;;14.20;3.92;;;23.00;99.90;;;;;;5092497;28;20025;-84
2023/07/02 00:33:56;;;;;;;18.10;4.20;;;23.00;99.90;;;;;;5092221;28;20472;-83
2023/07/02 00:36:22;;;;;;;15.63;4.35;;;23.00;99.90;;;;;;5092414;28;20050;-83
2023/07/02 00:38:49;;;;;;;20.27;4.05;;;22.80;99.90;;;;;;5092325;28;20050;-84
2023/07/02 00:41:16;;;;;;;16.67;4.20;;;22.60;99.90;;;;;;5092193;28;20418;-83
2023/07/02 00:43:45;;;;;;;;;;;22.60;99.90;;;;;;5094613;28;20020;-83
2023/07/02 00:46:19;;;;;;;15.40;4.35;;;22.50;99.90;;;;;;5096144;28;19961;-84
2023/07/02 00:48:50;;;;;;;16.35;4.70;;;22.30;99.90;;;;;;5095805;28;20055;-83
2023/07/02 00:51:27;;;;;;;15.27;4.13;;;22.30;99.90;;;;;;5094422;28;20051;-83
2023/07/02 00:53:57;;;;;;;19.83;4.25;;;22.10;99.90;;;;;;5096233;28;20038;-83
2023/07/02 00:56:25;;;;;;;24.15;4.20;;;21.90;99.90;;;;;;5095964;28;20024;-83
2023/07/02 00:58:53;;;;;;;21.52;4.20;;;21.90;99.90;;;;;;5096032;28;20054;-84
2023/07/02 01:01:22;;;;;;;22.02;4.78;;;21.90;99.90;;;;;;5095812;28;20081;-83
2023/07/02 01:04:01;;;;;;;18.23;4.05;;;22.00;99.90;;;;;;5095726;28;20448;-83
2023/07/02 01:06:29;;;;;;;21.17;4.15;;;22.00;99.90;;;;;;5095512;28;20024;-82
2023/07/02 01:08:57;;;;;;;19.83;4.03;;;22.00;99.90;;;;;;5097132;28;20028;-83
2023/07/02 01:11:42;;;;;;;22.65;4.45;;;22.10;99.90;;;;;;5095800;28;20032;-84
2023/07/02 01:14:51;;;;;;;20.63;4.35;;;22.10;99.90;;;;;;5096366;28;20036;-83
2023/07/02 01:17:19;;;;;;;20.90;4.03;;;21.90;99.90;;;;;;5073814;28;20119;-82
2023/07/02 01:19:54;;;;;;;19.83;4.13;;;21.80;99.90;;;;;;5073986;28;20086;-83
2023/07/02 01:22:24;;;;;;;21.15;4.07;;;21.80;99.90;;;;;;5073162;28;20111;-84
2023/07/02 01:24:54;;;;;;;17.48;4.30;;;21.90;99.90;;;;;;5073081;28;20043;-81
2023/07/02 01:27:21;;;;;;;18.95;3.80;;;21.90;99.90;;;;;;5072865;28;20041;-83
2023/07/02 01:29:56;;;;;;;20.73;4.18;;;21.90;99.90;;;;;;5056323;28;20463;-84
2023/07/02 01:32:23;;;;;;;21.45;4.25;;;21.90;99.90;;;;;;5073647;28;20077;-83
2023/07/02 01:34:49;;;;;;;18.10;4.00;;;21.90;99.90;;;;;;5073091;28;20194;-83
2023/07/02 01:37:18;;;;;;;21.02;3.90;;;21.90;99.90;;;;;;5072640;28;20109;-83
2023/07/02 01:39:44;;;;;;;16.58;3.70;;;22.00;99.90;;;;;;5072872;28;20528;-82
2023/07/02 01:42:14;;;;;;;21.27;4.05;;;21.90;99.90;;;;;;5072842;28;20036;-83
2023/07/02 01:44:40;;;;;;;20.05;4.13;;;21.90;99.90;;;;;;5072714;28;20140;-83
2023/07/02 01:47:06;;;;;;;22.08;3.95;;;21.90;99.90;;;;;;5072795;28;20139;-84
2023/07/02 01:49:33;;;;;;;19.67;3.53;;;21.90;99.90;;;;;;5074514;28;20027;-84
2023/07/02 01:51:59;;;;;;;27.23;4.30;;;21.90;99.90;;;;;;5074616;28;20074;-84
2023/07/02 01:54:28;;;;;;;20.25;4.60;;;22.00;99.90;;;;;;5074191;28;20025;-83
2023/07/02 01:56:57;;;;;;;24.13;4.22;;;22.00;99.90;;;;;;5074717;28;20028;-83
2023/07/02 01:59:23;;;;;;;18.98;3.58;;;22.00;99.90;;;;;;5074979;28;20480;-84
2023/07/02 02:01:49;;;;;;;24.13;3.97;;;22.00;99.90;;;;;;5073133;28;20036;-84
2023/07/02 02:04:15;;;;;;;14.40;3.10;;;22.10;99.90;;;;;;5074077;28;20094;-84
2023/07/02 02:06:42;;;;;;;26.83;4.00;;;22.10;99.90;;;;;;5089032;28;20022;-83
2023/07/02 02:09:11;;;;;;;19.80;3.47;;;22.10;99.90;;;;;;5097809;28;20058;-83
2023/07/02 02:11:44;;;;;;;24.05;3.90;;;22.10;99.90;;;;;;5095292;28;20047;-83
2023/07/02 02:14:10;;;;;;;22.55;3.72;;;22.00;99.90;;;;;;5094549;28;20038;-83
2023/07/02 02:16:36;;;;;;;21.48;4.05;;;22.00;99.90;;;;;;5094153;28;20047;-83
2023/07/02 02:19:02;;;;;;;13.98;3.00;;;22.00;99.90;;;;;;5094004;28;20035;-83
2023/07/02 02:21:28;;;;;;;22.52;4.22;;;22.00;99.90;;;;;;5094368;28;20502;-84
2023/07/02 02:23:55;;;;;;;15.23;3.42;;;22.00;99.90;;;;;;5094097;28;20469;-84
2023/07/02 02:26:21;;;;;;;17.65;3.50;;;22.00;99.90;;;;;;5093998;28;20020;-83
2023/07/02 02:28:48;;;;;;;;;;;22.00;99.90;;;;;;5094536;28;20076;-83
2023/07/02 02:31:16;;;;;;;16.60;3.33;;;22.00;99.90;;;;;;5094031;28;19935;-84
2023/07/02 02:33:42;;;;;;;18.85;3.28;;;21.90;99.90;;;;;;5093600;28;20045;-84
2023/07/02 02:36:08;;;;;;;14.13;3.30;;;21.90;99.90;;;;;;5093910;28;20024;-83
2023/07/02 02:38:37;;;;;;;20.63;3.33;;;22.00;99.90;;;;;;5093808;28;20073;-83
2023/07/02 02:41:03;;;;;;;20.45;4.10;;;22.00;99.90;;;;;;5093622;28;20024;-84
2023/07/02 02:43:29;;;;;;;22.33;3.75;;;21.90;99.90;;;;;;5092394;28;20387;-83
2023/07/02 02:45:55;;;;;;;16.08;3.63;;;21.90;99.90;;;;;;5092352;28;20388;-83
2023/07/02 02:48:24;;;;;;;15.32;3.53;;;21.90;99.90;;;;;;5093588;28;20039;-83
2023/07/02 02:50:50;;;;;;;19.77;3.38;;;21.90;99.90;;;;;;5093479;28;20028;-83
2023/07/02 02:53:16;;;;;;;20.65;3.90;;;21.90;99.90;;;;;;5093484;28;20020;-83
2023/07/02 02:55:42;;;;;;;21.15;3.70;;;21.90;99.90;;;;;;5093590;28;20028;-84
2023/07/02 02:58:08;;;;;;;16.88;3.25;;;21.90;99.90;;;;;;5093582;28;20446;-83
2023/07/02 03:00:34;;;;;;;23.70;3.63;;;21.80;99.90;;;;;;5093591;28;20016;-82
2023/07/02 03:03:01;;;;;;;17.52;3.47;;;21.80;99.90;;;;;;5093755;28;20024;-84
2023/07/02 03:05:27;;;;;;;20.05;3.80;;;21.70;99.90;;;;;;5092977;28;20024;-82
2023/07/02 03:07:53;;;;;;;14.27;2.85;;;21.80;99.90;;;;;;5093843;28;20098;-84
2023/07/02 03:10:19;;;;;;;21.33;3.38;;;21.80;99.90;;;;;;5093732;28;20024;-85
2023/07/02 03:12:47;;;;;;;20.95;3.28;;;21.80;99.90;;;;;;5093678;28;20024;-84
2023/07/02 03:15:14;;;;;;;18.50;3.60;;;21.80;99.90;;;;;;5093383;28;20353;-84
2023/07/02 03:17:40;;;;;;;18.30;3.13;;;21.80;99.90;;;;;;5093904;28;20032;-83
2023/07/02 03:20:09;;;;;;;15.50;3.17;;;21.80;99.90;;;;;;5093152;28;20031;-83
2023/07/02 03:22:36;;;;;;;17.13;3.55;;;21.80;99.90;;;;;;5093785;28;20024;-83
2023/07/02 03:25:02;;;;;;;17.48;3.08;;;21.80;99.90;;;;;;5093568;28;20107;-83
2023/07/02 03:27:28;;;;;;;18.27;3.58;;;21.80;99.90;;;;;;5091763;28;20062;-84
2023/07/02 03:29:54;;;;;;;20.02;4.25;;;21.80;99.90;;;;;;5093178;28;20024;-82
2023/07/02 03:32:20;;;;;;;18.65;3.05;;;21.80;99.90;;;;;;5091737;28;20020;-82
2023/07/02 03:34:46;;;;;;;28.73;3.75;;;21.80;99.90;;;;;;5092793;28;20062;-84
2023/07/02 03:37:12;;;;;;;18.25;3.53;;;21.80;99.90;;;;;;5092784;28;20028;-83
2023/07/02 03:39:38;;;;;;;19.98;3.20;;;21.80;99.90;;;;;;5092952;28;20031;-84
2023/07/02 03:42:06;;;;;;;15.60;3.13;;;21.80;99.90;;;;;;5093048;28;20028;-83
2023/07/02 03:44:32;;;;;;;21.17;3.50;;;21.90;99.90;;;;;;5093281;28;20044;-83
2023/07/02 03:46:58;;;;;;;20.27;3.55;;;21.90;99.90;;;;;;5092958;28;20046;-84
2023/07/02 03:49:24;;;;;;;17.63;3.10;;;21.80;99.90;;;;;;5091454;28;20046;-83
2023/07/02 03:51:50;;;;;;;19.52;3.13;;;21.80;99.90;;;;;;5093131;28;20016;-83
2023/07/02 03:54:16;;;;;;;15.45;3.05;;;21.80;99.90;;;;;;5093570;28;20029;-82
2023/07/02 03:56:42;;;;;;;17.10;3.33;;;21.80;99.90;;;;;;5092952;28;20134;-83
2023/07/02 03:59:08;;;;;;;18.88;3.33;;;21.80;99.90;;;;;;5092982;28;20028;-84
2023/07/02 04:01:34;;;;;;;20.27;3.20;;;21.80;99.90;;;;;;5092858;28;20028;-84
2023/07/02 04:04:00;;;;;;;18.65;3.85;;;21.80;99.90;;;;;;5092813;28;20479;-81
2023/07/02 04:06:26;;;;;;;20.80;3.40;;;21.90;99.90;;;;;;5092875;28;20024;-84
2023/07/02 04:08:53;;;;;;;17.67;3.40;;;21.80;99.90;;;;;;5093104;28;20036;-83
2023/07/02 04:11:19;;;;;;;;;;;21.80;99.90;;;;;;5093938;28;20108;-83
2023/07/02 04:13:45;;;;;;;23.20;3.72;;;21.80;99.90;;;;;;5092929;28;19904;-84
2023/07/02 04:16:11;;;;;;;20.30;3.10;;;21.80;99.90;;;;;;5093077;28;20040;-84
2023/07/02 04:18:37;;;;;;;23.38;3.33;;;21.90;99.90;;;;;;5096384;28;20031;-83
2023/07/02 04:21:03;;;;;;;15.13;3.20;;;21.90;99.90;;;;;;5096762;28;20468;-84
2023/07/02 04:23:29;;;;;;;14.48;3.00;;;22.00;99.90;;;;;;5095247;28;20123;-84
2023/07/02 04:25:55;;;;;;;16.73;3.22;;;22.00;99.90;;;;;;5095173;28;20089;-84
2023/07/02 04:28:21;;;;;;;16.02;3.10;;;22.00;99.90;;;;;;5096263;28;20040;-83
2023/07/02 04:30:49;;;;;;;17.80;3.20;;;22.10;99.90;;;;;;5096238;28;20353;-82
2023/07/02 04:33:16;;;;;;;25.65;3.22;;;21.90;99.90;;;;;;5096084;28;20081;-84
2023/07/02 04:35:42;;;;;;;21.45;3.30;;;22.00;99.90;;;;;;5096794;28;20059;-84
2023/07/02 04:38:09;;;;;;;20.23;3.05;;;22.00;99.90;;;;;;5094782;28;20028;-83
2023/07/02 04:40:35;;;;;;;18.05;3.05;;;22.10;99.90;;;;;;5096621;28;20016;-82
2023/07/02 04:43:02;;;;;;;16.23;2.95;;;22.20;99.90;;;;;;5096107;28;20075;-83
2023/07/02 04:45:36;;;;;;;18.10;2.92;;;22.20;99.90;;;;;;5096052;28;20025;-83
2023/07/02 04:48:03;;;;;;;14.13;2.80;;;22.20;99.90;;;;;;5096336;28;20032;-85
2023/07/02 04:50:29;;;;;;;18.90;2.75;;;22.20;99.90;;;;;;5096319;28;20021;-84
2023/07/02 04:52:56;;;;;;;17.30;2.75;;;22.30;99.90;;;;;;5096316;28;20047;-83
2023/07/02 04:55:22;;;;;;;13.25;2.45;;;22.30;99.90;;;;;;5095670;28;20392;-84
2023/07/02 04:57:48;;;;;;;11.25;2.70;;;22.40;99.90;;;;;;5095920;28;20076;-84
2023/07/02 05:00:14;;;;;;;12.73;2.45;;;22.50;99.90;;;;;;5096278;28;20016;-84
2023/07/02 05:02:40;;;;;;;11.80;2.35;;;22.70;99.90;;;;;;5095497;28;20468;-84
2023/07/02 05:05:07;;;;;;;10.07;2.78;;;23.00;99.90;;;;;;5095231;28;20030;-84
2023/07/02 05:07:33;;;;;;;;;;;24.10;99.90;;;;;;5096247;28;20024;-84
2023/07/02 05:09:59;;;;;;;10.27;2.50;;;25.60;99.90;;;;;;5096005;28;19958;-83
2023/07/02 05:12:25;;;;;;;12.40;2.72;;;27.00;99.90;;;;;;5096040;28;20024;-84
2023/07/02 05:14:51;;;;;;;12.20;2.70;;;28.30;99.90;;;;;;5096043;28;20059;-84
2023/07/02 05:17:17;;;;;;;15.00;2.88;;;29.20;99.90;;;;;;5095045;28;20059;-84
2023/07/02 05:19:43;;;;;;;;;;;30.20;99.90;;;;;;5095622;28;20111;-84
2023/07/02 05:22:10;;;;;;;15.20;2.53;;;31.10;99.90;;;;;;5095268;28;19911;-84
2023/07/02 05:24:36;;;;;;;12.40;2.50;;;31.30;99.90;;;;;;5095166;28;20110;-85
2023/07/02 05:27:02;;;;;;;;;;;31.20;99.90;;;;;;5095393;28;20028;-83
2023/07/02 05:29:28;;;;;;;13.35;2.72;;;32.10;99.90;;;;;;5094564;28;19904;-84
2023/07/02 05:31:54;;;;;;;;;;;32.80;99.90;;;;;;5095460;28;20024;-83
2023/07/02 05:34:20;;;;;;;9.55;2.45;;;34.30;99.90;;;;;;5093624;28;19904;-84
2023/07/02 05:36:46;;;;;;;13.27;2.90;;;34.70;99.90;;;;;;5094733;28;20029;-82
2023/07/02 05:39:12;;;;;;;13.32;2.85;;;35.00;99.90;;;;;;5094939;28;20039;-83
2023/07/02 05:41:38;;;;;;;11.18;3.00;;;34.80;99.90;;;;;;5095628;28;20099;-82
2023/07/02 05:44:04;;;;;;;12.55;2.38;;;35.00;99.90;;;;;;5095114;28;20468;-83
2023/07/02 05:46:30;;;;;;;10.88;2.45;;;35.10;99.90;;;;;;5093317;28;20411;-84
2023/07/02 05:48:57;;;;;;;10.05;2.50;;;35.70;99.90;;;;;;5094496;28;20046;-82
2023/07/02 05:51:24;;;;;;;10.77;2.38;;;34.00;99.90;;;;;;5095070;28;20020;-84
2023/07/02 05:53:50;;;;;;;11.90;2.85;;;33.90;99.90;;;;;;5094726;28;20066;-84
2023/07/02 05:56:17;;;;;;;13.30;2.55;;;34.80;99.90;;;;;;5094452;28;20020;-84
2023/07/02 05:58:45;;;;;;;11.85;2.70;;;34.60;99.90;;;;;;5093064;28;20058;-84
2023/07/02 06:01:11;;;;;;;9.65;2.08;;;34.90;99.90;;;;;;5094618;28;20035;-84
2023/07/02 06:03:37;;;;;;;11.82;2.58;;;35.40;99.90;;;;;;5094098;28;20020;-83
2023/07/02 06:06:03;;;;;;;11.60;2.70;;;34.70;99.90;;;;;;5094352;28;20491;-84
2023/07/02 06:08:29;;;;;;;15.90;2.90;;;35.00;99.90;;;;;;5092971;28;20387;-84
2023/07/02 06:10:55;;;;;;;9.63;2.50;;;36.30;99.90;;;;;;5093496;28;20464;-84
2023/07/02 06:13:21;;;;;;;11.40;2.47;;;37.00;99.90;;;;;;5094415;28;20027;-84
2023/07/02 06:15:48;;;;;;;12.07;2.20;;;37.30;99.90;;;;;;5094626;28;20044;-84
2023/07/02 06:18:14;;;;;;;12.73;2.30;;;36.50;99.90;;;;;;5094785;28;20023;-84
2023/07/02 06:20:40;;;;;;;12.43;2.70;;;35.80;99.90;;;;;;5092939;28;20022;-84
2023/07/02 06:23:06;;;;;;;9.32;2.42;;;34.90;99.90;;;;;;5094194;28;20024;-85
2023/07/02 06:25:32;;;;;;;12.18;2.50;;;34.50;99.90;;;;;;5094146;28;20046;-84
2023/07/02 06:27:59;;;;;;;10.35;2.35;;;34.90;99.90;;;;;;5093992;28;20032;-84
2023/07/02 06:30:26;;;;;;;9.00;2.08;;;34.80;99.90;;;;;;5094138;28;20128;-84
2023/07/02 06:32:52;;;;;;;10.43;1.98;;;35.20;99.90;;;;;;5094182;28;20028;-84
2023/07/02 06:35:18;;;;;;;8.55;2.03;;;35.90;99.90;;;;;;5093802;28;20570;-83
2023/07/02 06:37:44;;;;;;;9.65;2.20;;;37.00;99.90;;;;;;5094193;28;20024;-83
2023/07/02 06:40:10;;;;;;;7.97;2.10;;;36.50;99.90;;;;;;5093747;28;20016;-84
2023/07/02 06:42:37;;;;;;;6.85;1.92;;;36.60;99.90;;;;;;5094050;28;20078;-84
2023/07/02 06:45:04;;;;;;;10.57;2.00;;;36.50;99.90;;;;;;5094061;28;20028;-84
2023/07/02 06:47:30;;;;;;;9.35;1.95;;;37.70;99.90;;;;;;5093989;28;20044;-85
2023/07/02 06:49:56;;;;;;;6.35;1.67;;;39.40;99.90;;;;;;5093624;28;20020;-85
2023/07/02 06:52:22;;;;;;;15.57;2.10;;;38.30;99.90;;;;;;5093314;28;20384;-85
2023/07/02 06:54:48;;;;;;;7.35;1.95;;;37.50;99.90;;;;;;5093889;28;20468;-85
2023/07/02 06:57:14;;;;;;;8.48;2.00;;;36.90;99.90;;;;;;5093815;28;20034;-85
2023/07/02 06:59:40;;;;;;;11.05;1.70;;;36.70;99.90;;;;;;5093310;28;20031;-85
2023/07/02 07:02:07;;;;;;;8.57;1.67;;;36.40;99.90;;;;;;5093328;28;20032;-85
2023/07/02 07:04:36;;;;;;;8.73;1.73;;;36.70;99.90;;;;;;5093406;28;20047;-83
2023/07/02 07:07:02;;;;;;;15.43;1.92;;;36.00;99.90;;;;;;5093140;28;20038;-84
2023/07/02 07:09:29;;;;;;;11.23;2.30;;;37.10;99.90;;;;;;5091827;28;20113;-85
2023/07/02 07:11:56;;;;;;;8.02;2.03;;;37.40;99.90;;;;;;5093920;28;20051;-85
2023/07/02 07:14:22;;;;;;;9.30;2.22;;;37.40;99.90;;;;;;5093674;28;20031;-82
2023/07/02 07:16:49;;;;;;;7.00;1.85;;;37.00;99.90;;;;;;5092919;28;20052;-83
2023/07/02 07:19:16;;;;;;;7.93;2.45;;;37.60;99.90;;;;;;5093916;28;20388;-83
2023/07/02 07:21:43;;;;;;;13.07;2.50;;;36.20;99.90;;;;;;5093685;28;20073;-84
2023/07/02 07:24:09;;;;;;;7.10;2.20;;;35.10;99.90;;;;;;5092960;28;20042;-83
2023/07/02 07:26:35;;;;;;;6.57;2.03;;;35.00;99.90;;;;;;5093393;28;20399;-84
2023/07/02 07:29:01;;;;;;;6.75;2.30;;;34.40;99.90;;;;;;5092855;28;20060;-83
2023/07/02 07:31:27;;;;;;;15.55;2.58;;;34.60;99.90;;;;;;5093322;28;20016;-84
2023/07/02 07:33:53;;;;;;;6.50;2.55;;;34.00;99.90;;;;;;5093089;28;20384;-83
2023/07/02 07:36:19;;;;;;;9.20;2.80;;;32.70;99.90;;;;;;5093173;28;20095;-83
2023/07/02 07:38:46;;;;;;;7.82;2.80;;;32.80;99.90;;;;;;5093642;28;20028;-83
2023/07/02 07:41:12;;;;;;;8.02;2.70;;;33.40;99.90;;;;;;5092888;28;20028;-83
2023/07/02 07:43:38;;;;;;;9.13;2.78;;;33.30;99.90;;;;;;5094420;28;20110;-83
2023/07/02 07:46:04;;;;;;;10.07;2.85;;;32.70;99.90;;;;;;5092674;28;20464;-83
2023/07/02 07:48:30;;;;;;;12.68;3.00;;;32.20;99.90;;;;;;5092500;28;20043;-83
2023/07/02 07:50:56;;;;;;;11.20;2.70;;;32.30;99.90;;;;;;5093160;28;20019;-83
2023/07/02 07:53:22;;;;;;;;;;;32.10;99.90;;;;;;5097915;28;20028;-83
2023/07/02 07:55:48;;;;;;;11.13;3.60;;;32.40;99.90;;;;;;5097122;28;19908;-83
2023/07/02 07:58:14;;;;;;;10.48;3.22;;;32.80;99.90;;;;;;5095457;28;20103;-82
2023/07/02 08:00:40;;;;;;;;;;;33.10;99.90;;;;;;5095772;28;20028;-83
2023/07/02 08:03:06;;;;;;;9.57;3.17;;;32.30;99.90;;;;;;5096425;28;19911;-82
2023/07/02 08:05:32;;;;;;;;;;;31.10;99.90;;;;;;5096757;28;20032;-83
2023/07/02 08:07:58;;;;;;;9.73;3.20;;;31.10;99.90;;;;;;5096568;28;20003;-82
2023/07/02 08:10:25;;;;;;;9.18;3.00;;;31.40;99.90;;;;;;5097055;28;20020;-82
2023/07/02 08:12:54;;;;;;;9.85;3.38;;;30.90;99.90;;;;;;5097184;28;20099;-83
2023/07/02 08:15:21;;;;;;;9.05;3.20;;;31.20;99.90;;;;;;5096459;28;20034;-82
2023/07/02 08:17:48;;;;;;;9.50;3.05;;;31.30;99.90;;;;;;5129287;27;20036;-82
2023/07/02 08:20:14;;;;;;;13.40;3.45;;;31.90;99.90;;;;;;5096335;28;20141;-83
2023/07/02 08:22:41;;;;;;;10.77;3.13;;;32.00;99.90;;;;;;5096280;28;20107;-82
2023/07/02 08:25:07;;;;;;;12.25;3.42;;;31.80;99.90;;;;;;5096251;28;20035;-82
2023/07/02 08:27:33;;;;;;;11.48;3.50;;;31.10;99.90;;;;;;5094555;28;20450;-82
2023/07/02 08:29:59;;;;;;;13.02;4.85;;;31.00;99.90;;;;;;5095896;28;20055;-83
2023/07/02 08:32:25;;;;;;;17.48;6.53;;;31.60;99.90;;;;;;5094815;28;20028;-83
2023/07/02 08:34:52;;;;;;;13.85;4.53;;;32.30;99.90;;;;;;5095810;28;20032;-83
2023/07/02 08:37:18;;;;;;;11.48;3.80;;;32.10;99.90;;;;;;5096002;28;20487;-83
2023/07/02 08:39:44;;;;;;;;;;;32.50;99.90;;;;;;5096437;28;20077;-83
2023/07/02 08:42:10;;;;;;;10.45;3.35;;;32.20;99.90;;;;;;5096387;28;19940;-83
2023/07/02 08:44:36;;;;;;;;;;;32.00;99.90;;;;;;5096554;28;20039;-82
2023/07/02 08:47:02;;;;;;;8.95;3.58;;;31.90;99.90;;;;;;5095966;28;19904;-83
2023/07/02 08:49:29;;;;;;;12.65;3.30;;;31.80;99.90;;;;;;5094213;28;20040;-83
2023/07/02 08:51:55;;;;;;;9.48;3.25;;;31.70;99.90;;;;;;5094455;28;20046;-85
2023/07/02 08:54:21;;;;;;;11.52;3.47;;;31.60;99.90;;;;;;5095656;28;20028;-83
2023/07/02 08:56:47;;;;;;;25.33;3.70;;;31.60;99.90;;;;;;5095630;28;20054;-83
2023/07/02 08:59:13;;;;;;;20.60;3.63;;;32.20;99.90;;;;;;5094124;28;20537;-82
2023/07/02 09:01:50;;;;;;;;;;;32.50;99.90;;;;;;5095734;28;20050;-84
2023/07/02 09:04:20;;;;;;;13.00;3.72;;;32.20;99.90;;;;;;5094226;28;19994;-83
2023/07/02 09:06:47;;;;;;;17.05;3.80;;;32.60;99.90;;;;;;5095455;28;20021;-83
2023/07/02 09:09:14;;;;;;;14.75;3.97;;;32.50;99.90;;;;;;5095431;28;20034;-84
2023/07/02 09:11:50;;;;;;;13.82;3.42;;;32.60;99.90;;;;;;5095239;28;20573;-83
2023/07/02 09:14:30;;;;;;;14.52;2.95;;;32.30;99.90;;;;;;5095332;28;20020;-83
2023/07/02 09:17:08;;;;;;;13.88;3.22;;;32.70;99.90;;;;;;5095418;28;20151;-83
2023/07/02 09:19:35;;;;;;;14.52;3.17;;;32.80;99.90;;;;;;5095378;28;20016;-83
2023/07/02 09:22:02;;;;;;;12.38;3.30;;;32.90;99.90;;;;;;5094068;28;20031;-83
2023/07/02 09:24:31;;;;;;;15.30;3.85;;;33.20;99.90;;;;;;5095406;28;20486;-83
2023/07/02 09:27:02;;;;;;;14.52;3.53;;;32.80;99.90;;;;;;5095035;28;20111;-83
2023/07/02 09:29:32;;;;;;;13.07;3.38;;;32.80;99.90;;;;;;5094885;28;20063;-84
2023/07/02 09:32:04;;;;;;;14.65;3.45;;;32.80;99.90;;;;;;5095399;28;20070;-82
2023/07/02 09:34:35;;;;;;;11.70;3.63;;;32.80;99.90;;;;;;5094959;28;20028;-83
2023/07/02 09:37:04;;;;;;;12.98;3.33;;;32.60;99.90;;;;;;5094471;28;20137;-81
2023/07/02 09:39:35;;;;;;;14.23;3.40;;;32.30;99.90;;;;;;5094606;28;20024;-82
2023/07/02 09:42:05;;;;;;;16.73;3.83;;;32.60;99.90;;;;;;5095129;28;20016;-81
2023/07/02 09:44:32;;;;;;;16.10;3.85;;;32.80;99.90;;;;;;5094408;28;20028;-81
2023/07/02 09:47:06;;;;;;;13.80;3.70;;;32.60;99.90;;;;;;5094232;28;20096;-82
2023/07/02 09:49:36;;;;;;;12.77;3.42;;;32.30;99.90;;;;;;5093839;28;20123;-81
2023/07/02 09:52:05;;;;;;;16.80;3.47;;;32.20;99.90;;;;;;5094933;28;20024;-82
2023/07/02 09:54:31;;;;;;;28.38;4.03;;;32.30;99.90;;;;;;5094728;28;20055;-83
2023/07/02 09:57:00;;;;;;;13.77;3.25;;;32.50;99.90;;;;;;5094641;28;20024;-82
2023/07/02 09:59:27;;;;;;;12.23;3.40;;;32.50;99.90;;;;;;5094535;28;20032;-83
2023/07/02 10:01:54;;;;;;;12.93;3.10;;;32.50;99.90;;;;;;5094528;28;20103;-84
2023/07/02 10:04:23;;;;;;;11.73;3.20;;;32.50;99.90;;;;;;5094368;28;20024;-84
2023/07/02 10:06:51;;;;;;;12.35;3.22;;;31.80;99.90;;;;;;5094389;28;20484;-82
2023/07/02 10:09:18;;;;;;;13.95;3.15;;;32.10;99.90;;;;;;5094632;28;20165;-84
2023/07/02 10:11:44;;;;;;;10.75;3.20;;;31.70;99.90;;;;;;5094392;28;20141;-84
2023/07/02 10:14:10;;;;;;;17.25;2.95;;;31.50;99.90;;;;;;5094299;28;20031;-83
2023/07/02 10:16:54;;;;;;;21.70;3.00;;;31.50;99.90;;;;;;5094007;28;20496;-83
2023/07/02 10:19:21;;;;;;;15.35;3.10;;;31.20;99.90;;;;;;5094182;28;20024;-83
2023/07/02 10:22:02;;;;;;;19.63;3.22;;;31.50;99.90;;;;;;5092825;28;20034;-83
2023/07/02 10:24:28;;;;;;;15.00;3.42;;;31.60;99.90;;;;;;5094445;28;20046;-82
2023/07/02 10:26:58;;;;;;;21.30;3.25;;;31.70;99.90;;;;;;5094424;28;20020;-83
2023/07/02 10:29:25;;;;;;;15.35;3.30;;;31.70;99.90;;;;;;5094138;28;20055;-83
2023/07/02 10:31:53;;;;;;;15.10;3.20;;;31.60;99.90;;;;;;5093751;28;20483;-84
2023/07/02 10:34:29;;;;;;;22.75;3.28;;;31.10;99.90;;;;;;5093462;28;20107;-83
2023/07/02 10:36:55;;;;;;;;;;;31.10;99.90;;;;;;5092689;28;20028;-83
2023/07/02 10:39:21;;;;;;;17.45;3.13;;;30.60;99.90;;;;;;5093747;28;20350;-84
2023/07/02 10:41:47;;;;;;;;;;;30.40;99.90;;;;;;5094116;28;20039;-83
2023/07/02 10:44:13;;;;;;;17.73;3.42;;;30.60;99.90;;;;;;5092050;28;19904;-83
2023/07/02 10:46:49;;;;;;;10.38;2.90;;;30.60;99.90;;;;;;5093099;28;20537;-84
2023/07/02 10:49:18;;;;;;;19.55;3.15;;;30.80;99.90;;;;;;5091626;28;20036;-83
2023/07/02 10:51:44;;;;;;;13.10;2.97;;;30.80;99.90;;;;;;5091826;28;20024;-83
2023/07/02 10:54:10;;;;;;;;;;;30.60;99.90;;;;;;5094244;28;20109;-84
2023/07/02 10:56:36;;;;;;;18.50;3.58;;;30.60;99.90;;;;;;5093463;28;19946;-83
2023/07/02 10:59:02;;;;;;;16.92;3.30;;;30.50;99.90;;;;;;5093268;28;20426;-82
2023/07/02 11:01:30;;;;;;;12.55;2.90;;;30.60;99.90;;;;;;5093389;28;20024;-83
2023/07/02 11:04:04;;;;;;;15.52;2.90;;;30.70;99.90;;;;;;5093393;28;20055;-83
2023/07/02 11:06:32;;;;;;;17.65;3.47;;;30.60;99.90;;;;;;5093241;28;20059;-83
2023/07/02 11:09:00;;;;;;;28.10;3.42;;;30.50;99.90;;;;;;5093199;28;20056;-82
2023/07/02 11:11:26;;;;;;;49.42;5.10;;;30.50;99.90;;;;;;5093225;28;20027;-83
2023/07/02 11:13:52;;;;;;;;;;;30.40;99.90;;;;;;5093448;28;20035;-84
2023/07/02 11:16:26;;;;;;;14.25;3.17;;;30.30;99.90;;;;;;5092638;28;19912;-82
2023/07/02 11:19:10;;;;;;;18.25;3.47;;;30.40;99.90;;;;;;5091382;28;20024;-83
2023/07/02 11:21:37;;;;;;;17.45;3.40;;;30.30;99.90;;;;;;5093650;28;20027;-85
2023/07/02 11:24:04;;;;;;;19.73;3.38;;;30.00;99.90;;;;;;5093354;28;20020;-84
2023/07/02 11:26:37;;;;;;;21.70;4.25;;;30.10;99.90;;;;;;5092276;28;20024;-82
2023/07/02 11:29:04;;;;;;;13.18;3.00;;;30.10;99.90;;;;;;5093184;28;20146;-83
2023/07/02 11:31:29;;;;;;;;;;;30.50;99.90;;;;;;5093954;28;20020;-85
2023/07/02 11:33:56;;;;;;;11.45;3.10;;;30.50;99.90;;;;;;5093095;28;19904;-82
2023/07/02 11:36:26;;;;;;;14.23;3.30;;;30.70;99.90;;;;;;5093043;28;20024;-83
2023/07/02 11:38:52;;;;;;;13.40;3.20;;;30.70;99.90;;;;;;5092915;28;20456;-83
2023/07/02 11:41:18;;;;;;;;;;;30.90;99.90;;;;;;5093893;28;20061;-83
2023/07/02 11:43:48;;;;;;;18.85;3.42;;;31.10;99.90;;;;;;5092904;28;19904;-83
2023/07/02 11:46:14;;;;;;;12.55;3.00;;;31.20;99.90;;;;;;5093426;28;20028;-84
2023/07/02 11:48:40;;;;;;;15.90;3.33;;;31.30;99.90;;;;;;5093551;28;20060;-82
2023/07/02 11:51:06;;;;;;;11.13;2.88;;;31.10;99.90;;;;;;5092924;28;20024;-82
2023/07/02 11:53:32;;;;;;;17.00;3.20;;;30.90;99.90;;;;;;5093463;28;20448;-83
2023/07/02 11:55:58;;;;;;;11.00;2.97;;;30.80;99.90;;;;;;5093123;28;20032;-83
2023/07/02 11:58:24;;;;;;;22.23;3.22;;;30.80;99.90;;;;;;5093049;28;20142;-83
2023/07/02 12:00:51;;;;;;;13.63;3.28;;;30.50;99.90;;;;;;5091468;28;20024;-81
2023/07/02 12:03:17;;;;;;;13.95;2.95;;;30.30;99.90;;;;;;5092821;28;20177;-83
2023/07/02 12:05:43;;;;;;;14.30;3.03;;;30.40;99.90;;;;;;5092764;28;20062;-82
2023/07/02 12:08:09;;;;;;;14.80;3.00;;;30.20;99.90;;;;;;5091410;28;20047;-82
2023/07/02 12:10:35;;;;;;;15.65;3.40;;;30.10;99.90;;;;;;5092708;28;20025;-83
2023/07/02 12:13:01;;;;;;;12.52;3.28;;;30.20;99.90;;;;;;5091507;28;20117;-83
2023/07/02 12:15:27;;;;;;;13.40;3.22;;;30.20;99.90;;;;;;5092572;28;20024;-81
2023/07/02 12:17:54;;;;;;;15.93;3.17;;;30.40;99.90;;;;;;5093054;28;20507;-82
2023/07/02 12:20:20;;;;;;;13.32;2.83;;;30.60;99.90;;;;;;5092491;28;20020;-82
2023/07/02 12:22:46;;;;;;;16.65;3.20;;;30.50;99.90;;;;;;5092403;28;20020;-83
2023/07/02 12:25:12;;;;;;;27.45;4.10;;;30.60;99.90;;;;;;5092980;28;20073;-81
2023/07/02 12:27:38;;;;;;;10.10;3.30;;;30.60;99.90;;;;;;5092469;28;20050;-83
2023/07/02 12:30:05;;;;;;;22.25;3.22;;;30.70;99.90;;;;;;5092577;28;20118;-84
2023/07/02 12:32:31;;;;;;;12.05;2.90;;;30.90;99.90;;;;;;5092965;28;20020;-83
2023/07/02 12:34:57;;;;;;;15.10;2.92;;;30.90;99.90;;;;;;5092701;28;20024;-82
2023/07/02 12:37:23;;;;;;;15.30;3.45;;;30.90;99.90;;;;;;5093808;28;20028;-83
2023/07/02 12:39:49;;;;;;;12.32;3.00;;;30.90;99.90;;;;;;5096040;28;20032;-82
2023/07/02 12:42:15;;;;;;;10.63;3.05;;;30.80;99.90;;;;;;5096237;28;20096;-82
2023/07/02 12:44:42;;;;;;;12.85;2.65;;;30.40;99.90;;;;;;5096615;28;20024;-82